createdAt,value
2022-12-31T00:00:22.075Z,13.20
2022-12-31T00:02:49.212Z,13.24
2022-12-31T00:05:16.328Z,13.21
2022-12-31T00:10:09.675Z,13.21
2022-12-31T00:12:36.689Z,13.28
2022-12-31T00:15:03.901Z,13.27
2022-12-31T00:17:30.922Z,13.27
2022-12-31T00:19:57.932Z,13.25
2022-12-31T00:22:25.042Z,13.29
2022-12-31T00:24:52.004Z,13.28
2022-12-31T00:27:19.129Z,13.29
2022-12-31T00:29:46.104Z,13.25
2022-12-31T00:32:13.317Z,13.24
2022-12-31T00:34:40.287Z,13.27
2022-12-31T00:37:07.266Z,13.31
2022-12-31T00:39:34.269Z,13.26
2022-12-31T00:42:01.437Z,13.32
2022-12-31T00:44:28.568Z,13.26
2022-12-31T00:46:55.497Z,13.26
2022-12-31T00:49:22.516Z,13.26
2022-12-31T00:51:49.600Z,13.24
2022-12-31T00:54:16.698Z,13.25
2022-12-31T00:56:43.758Z,13.25
2022-12-31T00:59:10.787Z,13.26
2022-12-31T01:01:40.585Z,13.26
2022-12-31T01:04:18.134Z,13.25
2022-12-31T01:06:46.263Z,13.27
2022-12-31T01:09:16.289Z,13.26
2022-12-31T01:11:43.605Z,13.26
2022-12-31T01:14:20.942Z,13.24
2022-12-31T01:16:53.237Z,13.27
2022-12-31T01:19:27.007Z,13.26
2022-12-31T01:21:55.732Z,13.26
2022-12-31T01:24:23.343Z,13.26
2022-12-31T01:26:51.379Z,13.27
2022-12-31T01:29:18.706Z,13.27
2022-12-31T01:31:45.719Z,13.24
2022-12-31T01:34:12.922Z,13.10
2022-12-31T01:36:40.126Z,13.02
2022-12-31T01:39:09.038Z,12.98
2022-12-31T01:41:44.295Z,12.94
2022-12-31T01:44:14.074Z,12.94
2022-12-31T01:46:47.283Z,12.91
2022-12-31T01:49:40.750Z,12.90
2022-12-31T01:52:14.260Z,12.84
2022-12-31T01:54:48.529Z,12.84
2022-12-31T01:57:16.885Z,12.83
2022-12-31T01:59:45.340Z,12.83
2022-12-31T02:02:15.135Z,12.83
2022-12-31T02:04:42.419Z,12.81
2022-12-31T02:07:11.370Z,12.80
2022-12-31T02:09:42.093Z,12.81
2022-12-31T02:12:10.075Z,12.80
2022-12-31T02:14:48.303Z,12.80
2022-12-31T02:18:01.641Z,12.80
2022-12-31T02:20:54.082Z,12.81
2022-12-31T02:23:54.782Z,12.78
2022-12-31T02:27:21.248Z,12.77
2022-12-31T02:30:14.291Z,12.78
2022-12-31T02:33:14.852Z,12.77
2022-12-31T02:35:49.411Z,12.77
2022-12-31T02:38:24.630Z,12.77
2022-12-31T02:40:56.638Z,12.75
2022-12-31T02:43:25.104Z,12.73
2022-12-31T02:46:38.280Z,12.74
2022-12-31T02:49:30.968Z,12.73
2022-12-31T02:52:21.327Z,12.72
2022-12-31T02:55:07.030Z,12.71
2022-12-31T02:58:00.312Z,12.68
2022-12-31T03:00:49.340Z,12.68
2022-12-31T03:03:17.695Z,12.68
2022-12-31T03:05:46.811Z,12.66
2022-12-31T03:08:25.921Z,12.65
2022-12-31T03:10:53.219Z,12.64
2022-12-31T03:13:20.219Z,12.63
2022-12-31T03:15:47.192Z,12.60
2022-12-31T03:18:39.505Z,12.63
2022-12-31T03:21:32.078Z,12.61
2022-12-31T03:24:17.857Z,12.61
2022-12-31T03:26:44.918Z,12.62
2022-12-31T03:29:11.923Z,12.61
2022-12-31T03:31:38.911Z,12.62
2022-12-31T03:34:06.066Z,12.60
2022-12-31T03:36:33.015Z,12.58
2022-12-31T03:38:59.952Z,12.57
2022-12-31T03:41:26.952Z,12.57
2022-12-31T03:43:53.931Z,12.56
2022-12-31T03:46:21.088Z,12.56
2022-12-31T03:48:48.087Z,12.57
2022-12-31T03:51:15.616Z,12.57
2022-12-31T03:53:42.600Z,12.57
2022-12-31T03:56:09.578Z,12.56
2022-12-31T03:58:36.525Z,12.55
2022-12-31T04:01:03.633Z,12.54
2022-12-31T04:03:30.704Z,12.52
2022-12-31T04:05:57.674Z,12.53
2022-12-31T04:08:25.215Z,12.53
2022-12-31T04:10:52.232Z,12.54
2022-12-31T04:13:19.257Z,12.53
2022-12-31T04:15:49.082Z,12.54
2022-12-31T04:18:16.222Z,12.54
2022-12-31T04:20:43.202Z,12.57
2022-12-31T04:23:10.331Z,12.57
2022-12-31T04:25:37.278Z,12.60
2022-12-31T04:28:04.472Z,12.58
2022-12-31T04:30:31.499Z,12.64
2022-12-31T04:32:58.475Z,12.62
2022-12-31T04:35:25.421Z,12.62
2022-12-31T04:37:52.466Z,12.63
2022-12-31T04:40:19.802Z,12.63
2022-12-31T04:42:46.820Z,12.71
2022-12-31T04:45:13.884Z,12.76
2022-12-31T04:47:40.884Z,12.74
2022-12-31T04:50:08.241Z,12.83
2022-12-31T04:52:42.160Z,13.01
2022-12-31T04:55:41.033Z,13.05
2022-12-31T04:58:08.065Z,13.03
2022-12-31T05:00:35.129Z,13.00
2022-12-31T05:03:02.181Z,13.09
2022-12-31T05:05:30.032Z,13.11
2022-12-31T05:07:57.009Z,13.09
2022-12-31T05:10:24.272Z,13.17
2022-12-31T05:12:51.301Z,13.41
2022-12-31T05:15:18.289Z,13.52
2022-12-31T05:17:45.261Z,13.62
2022-12-31T05:20:12.223Z,13.68
2022-12-31T05:22:39.281Z,13.66
2022-12-31T05:25:06.907Z,13.68
2022-12-31T05:27:34.237Z,13.77
2022-12-31T05:30:01.276Z,13.82
2022-12-31T05:32:28.352Z,13.85
2022-12-31T05:34:55.442Z,13.84
2022-12-31T05:37:22.483Z,13.85
2022-12-31T05:39:49.634Z,14.09
2022-12-31T05:42:16.709Z,13.83
2022-12-31T05:44:43.783Z,13.87
2022-12-31T05:47:11.021Z,13.84
2022-12-31T05:49:38.089Z,13.79
2022-12-31T05:52:05.331Z,13.77
2022-12-31T05:54:32.649Z,13.92
2022-12-31T05:56:59.796Z,13.93
2022-12-31T05:59:26.970Z,13.89
2022-12-31T06:01:54.013Z,13.96
2022-12-31T06:04:21.050Z,13.96
2022-12-31T06:06:48.075Z,14.00
2022-12-31T06:09:17.326Z,13.94
2022-12-31T06:11:45.270Z,14.06
2022-12-31T06:14:12.945Z,13.89
2022-12-31T06:16:40.516Z,14.07
2022-12-31T06:19:07.728Z,14.01
2022-12-31T06:21:35.060Z,14.11
2022-12-31T06:24:02.168Z,14.12
2022-12-31T06:26:29.149Z,14.12
2022-12-31T06:28:56.132Z,14.13
2022-12-31T06:31:23.106Z,14.16
2022-12-31T06:33:50.137Z,14.14
2022-12-31T06:36:17.473Z,14.17
2022-12-31T06:38:44.777Z,14.11
2022-12-31T06:41:15.107Z,14.25
2022-12-31T06:43:42.926Z,14.19
2022-12-31T06:46:13.610Z,14.23
2022-12-31T06:48:42.927Z,14.15
2022-12-31T06:51:18.085Z,14.22
2022-12-31T06:53:50.822Z,14.19
2022-12-31T06:56:31.334Z,14.18
2022-12-31T06:59:00.806Z,14.23
2022-12-31T07:01:36.566Z,14.17
2022-12-31T07:04:41.966Z,14.18
2022-12-31T07:07:35.028Z,14.33
2022-12-31T07:10:11.950Z,14.29
2022-12-31T07:13:28.014Z,14.27
2022-12-31T07:16:06.911Z,14.22
2022-12-31T07:19:05.118Z,14.38
2022-12-31T07:21:41.673Z,14.34
2022-12-31T07:24:11.755Z,14.30
2022-12-31T07:26:57.116Z,14.35
2022-12-31T07:29:54.255Z,14.33
2022-12-31T07:32:51.682Z,14.27
2022-12-31T07:35:48.633Z,14.31
2022-12-31T07:38:21.237Z,14.39
2022-12-31T07:41:28.258Z,14.37
2022-12-31T07:44:11.031Z,14.38
2022-12-31T07:46:55.708Z,14.37
2022-12-31T07:49:24.858Z,14.41
2022-12-31T07:51:53.000Z,14.44
2022-12-31T07:54:20.651Z,14.42
2022-12-31T07:56:50.458Z,14.39
2022-12-31T07:59:47.773Z,14.41
2022-12-31T08:02:20.780Z,14.36
2022-12-31T08:05:20.428Z,14.43
2022-12-31T08:08:16.970Z,14.51
2022-12-31T08:11:10.360Z,14.51
2022-12-31T08:13:39.108Z,14.49
2022-12-31T08:16:12.369Z,14.57
2022-12-31T08:18:39.953Z,14.48
2022-12-31T08:21:38.652Z,14.56
2022-12-31T08:24:54.502Z,14.48
2022-12-31T08:28:07.700Z,14.56
2022-12-31T08:30:55.509Z,14.48
2022-12-31T08:33:43.189Z,14.53
2022-12-31T08:36:53.536Z,14.53
2022-12-31T08:39:32.576Z,14.51
2022-12-31T08:42:03.415Z,14.48
2022-12-31T08:45:05.671Z,14.52
2022-12-31T08:47:41.295Z,14.53
2022-12-31T08:50:16.605Z,14.53
2022-12-31T08:52:44.372Z,14.52
2022-12-31T08:55:18.937Z,14.58
2022-12-31T08:58:19.058Z,14.55
2022-12-31T09:00:49.358Z,14.52
2022-12-31T09:03:24.091Z,14.59
2022-12-31T09:06:26.471Z,14.56
2022-12-31T09:09:50.364Z,14.57
2022-12-31T09:12:46.651Z,14.53
2022-12-31T09:15:25.113Z,14.54
2022-12-31T09:17:52.492Z,14.48
2022-12-31T09:20:43.763Z,14.50
2022-12-31T09:23:13.250Z,14.43
2022-12-31T09:26:07.712Z,14.49
2022-12-31T09:29:10.471Z,14.48
2022-12-31T09:31:54.128Z,14.49
2022-12-31T09:34:35.802Z,14.51
2022-12-31T09:37:24.846Z,14.51
2022-12-31T09:39:53.325Z,14.49
2022-12-31T09:42:50.677Z,14.56
2022-12-31T09:45:42.619Z,14.54
2022-12-31T09:48:49.282Z,14.59
2022-12-31T09:52:09.595Z,14.57
2022-12-31T09:55:20.968Z,14.58
2022-12-31T09:58:18.374Z,14.54
2022-12-31T10:01:02.227Z,14.61
2022-12-31T10:03:46.694Z,14.68
2022-12-31T10:06:53.512Z,14.64
2022-12-31T10:09:43.865Z,14.70
2022-12-31T10:12:22.956Z,14.68
2022-12-31T10:15:44.302Z,14.76
2022-12-31T10:18:58.598Z,14.71
2022-12-31T10:21:36.629Z,14.67
2022-12-31T10:24:45.939Z,14.68
2022-12-31T10:27:42.178Z,14.73
2022-12-31T10:30:13.540Z,14.83
2022-12-31T10:32:58.877Z,14.79
2022-12-31T10:35:48.998Z,14.89
2022-12-31T10:38:35.939Z,14.89
2022-12-31T10:41:49.670Z,14.91
2022-12-31T10:45:12.111Z,14.87
2022-12-31T10:48:12.253Z,14.91
2022-12-31T10:50:57.239Z,14.94
2022-12-31T10:54:25.634Z,14.92
2022-12-31T10:58:00.277Z,14.88
2022-12-31T11:00:46.059Z,14.95
2022-12-31T11:03:37.087Z,14.97
2022-12-31T11:06:49.718Z,14.95
2022-12-31T11:09:45.052Z,14.99
2022-12-31T11:12:57.518Z,14.99
2022-12-31T11:15:49.951Z,14.98
2022-12-31T11:18:59.513Z,15.01
2022-12-31T11:21:58.759Z,15.01
2022-12-31T11:24:58.177Z,14.93
2022-12-31T11:28:07.760Z,14.93
2022-12-31T11:30:59.341Z,14.98
2022-12-31T11:33:43.024Z,14.97
2022-12-31T11:36:34.940Z,14.94
2022-12-31T11:39:40.073Z,14.93
2022-12-31T11:42:44.142Z,14.92
2022-12-31T11:45:27.881Z,14.91
2022-12-31T11:48:34.380Z,14.89
2022-12-31T11:51:34.587Z,14.90
2022-12-31T11:54:57.067Z,14.91
2022-12-31T11:57:35.604Z,14.91
2022-12-31T12:00:20.483Z,14.88
2022-12-31T12:02:50.420Z,14.88
2022-12-31T12:05:21.798Z,14.84
2022-12-31T12:07:50.816Z,14.88
2022-12-31T12:10:36.533Z,14.85
2022-12-31T12:13:25.262Z,14.81
2022-12-31T12:16:06.374Z,14.82
2022-12-31T12:19:04.100Z,14.81
2022-12-31T12:21:31.776Z,14.82
2022-12-31T12:24:18.061Z,14.80
2022-12-31T12:26:45.597Z,14.82
2022-12-31T12:29:19.198Z,14.79
2022-12-31T12:31:57.579Z,14.83
2022-12-31T12:34:29.629Z,14.83
2022-12-31T12:36:57.131Z,14.85
2022-12-31T12:39:31.602Z,14.90
2022-12-31T12:42:15.080Z,14.88
2022-12-31T12:44:42.794Z,14.90
2022-12-31T12:47:17.391Z,14.87
2022-12-31T12:49:54.152Z,14.91
2022-12-31T12:52:56.365Z,14.90
2022-12-31T12:55:35.285Z,14.88
2022-12-31T12:58:19.362Z,14.92
2022-12-31T13:00:56.927Z,14.92
2022-12-31T13:04:33.458Z,14.93
2022-12-31T14:01:53.431Z,15.14
2022-12-31T14:04:45.079Z,15.17
2022-12-31T14:07:34.744Z,15.12
2022-12-31T14:10:16.161Z,15.16
2022-12-31T14:13:44.196Z,15.15
2022-12-31T14:16:32.219Z,15.15
2022-12-31T14:19:34.195Z,15.14
2022-12-31T14:22:21.702Z,15.15
2022-12-31T14:24:51.187Z,15.17
2022-12-31T14:27:32.181Z,15.19
2022-12-31T14:30:15.631Z,15.18
2022-12-31T14:33:06.868Z,15.20
2022-12-31T14:35:56.688Z,15.19
2022-12-31T14:39:00.814Z,15.17
2022-12-31T14:41:56.761Z,15.22
2022-12-31T14:44:54.904Z,15.25
2022-12-31T14:47:40.982Z,15.23
2022-12-31T14:50:20.820Z,15.27
2022-12-31T14:53:17.529Z,15.23
2022-12-31T14:55:44.596Z,15.23
2022-12-31T14:58:29.729Z,15.25
2022-12-31T15:01:03.342Z,15.20
2022-12-31T15:03:45.471Z,15.22
2022-12-31T15:06:32.856Z,15.20
2022-12-31T15:09:20.996Z,15.24
2022-12-31T15:12:27.868Z,15.25
2022-12-31T15:15:42.443Z,15.29
2022-12-31T15:18:21.946Z,15.26
2022-12-31T15:20:54.891Z,15.26
2022-12-31T15:23:39.578Z,15.28
2022-12-31T15:26:08.519Z,15.26
2022-12-31T15:28:39.531Z,15.29
2022-12-31T15:31:20.694Z,15.28
2022-12-31T15:34:29.532Z,15.32
2022-12-31T15:37:01.296Z,15.31
2022-12-31T15:39:31.121Z,15.29
2022-12-31T15:44:55.377Z,15.25
2022-12-31T15:47:39.720Z,15.25
2022-12-31T15:50:20.518Z,15.28
2022-12-31T15:53:02.741Z,15.27
2022-12-31T15:55:41.697Z,15.27
2022-12-31T15:58:18.363Z,15.24
2022-12-31T16:01:10.332Z,15.20
2022-12-31T16:03:42.253Z,15.21
2022-12-31T16:06:13.952Z,15.23
2022-12-31T16:08:46.185Z,15.23
2022-12-31T16:11:13.582Z,15.23
2022-12-31T16:13:48.697Z,15.19
2022-12-31T16:16:31.631Z,15.19
2022-12-31T16:19:00.021Z,15.18
2022-12-31T16:21:36.364Z,15.14
2022-12-31T16:24:32.229Z,15.15
2022-12-31T16:27:13.809Z,15.13
2022-12-31T16:29:55.535Z,15.11
2022-12-31T16:32:23.245Z,15.14
2022-12-31T16:34:50.281Z,15.15
2022-12-31T16:37:20.886Z,15.14
2022-12-31T16:40:08.817Z,15.16
2022-12-31T16:42:44.246Z,15.16
2022-12-31T16:45:36.817Z,15.12
2022-12-31T16:48:18.631Z,15.12
2022-12-31T16:50:55.907Z,15.12
2022-12-31T16:53:27.766Z,15.12
2022-12-31T16:56:06.950Z,15.11
2022-12-31T16:58:40.082Z,15.10
2022-12-31T17:01:20.959Z,15.11
2022-12-31T17:03:55.357Z,15.11
2022-12-31T17:06:23.331Z,15.16
2022-12-31T17:08:56.280Z,15.13
2022-12-31T17:11:39.174Z,15.12
2022-12-31T17:14:06.263Z,15.13
2022-12-31T17:16:59.552Z,15.15
2022-12-31T17:19:45.900Z,15.10
2022-12-31T17:22:34.217Z,15.10
2022-12-31T17:25:27.022Z,15.10
2022-12-31T17:28:03.114Z,15.09
2022-12-31T17:30:29.990Z,15.08
2022-12-31T17:33:08.150Z,15.05
2022-12-31T17:35:42.407Z,15.04
2022-12-31T17:38:21.282Z,15.07
2022-12-31T17:40:55.713Z,15.03
2022-12-31T17:43:24.637Z,15.04
2022-12-31T17:45:54.918Z,15.03
2022-12-31T17:48:24.712Z,15.07
2022-12-31T17:50:58.333Z,15.07
2022-12-31T17:53:26.134Z,15.07
2022-12-31T17:56:00.102Z,15.06
2022-12-31T17:58:51.009Z,15.05
2022-12-31T18:01:22.370Z,15.03
2022-12-31T18:03:50.185Z,15.08
2022-12-31T18:06:19.754Z,15.04
2022-12-31T18:08:47.108Z,15.09
2022-12-31T18:11:24.637Z,15.05
2022-12-31T18:13:52.947Z,15.01
2022-12-31T18:16:19.960Z,15.04
2022-12-31T18:18:46.937Z,15.05
2022-12-31T18:21:36.751Z,15.07
2022-12-31T18:26:33.090Z,15.06
2022-12-31T18:29:10.637Z,15.15
2022-12-31T18:31:37.863Z,15.22
2022-12-31T18:34:04.938Z,15.18
2022-12-31T18:36:32.324Z,15.12
2022-12-31T18:38:59.344Z,15.17
2022-12-31T18:41:34.324Z,15.11
2022-12-31T18:44:01.450Z,15.05
2022-12-31T18:46:29.352Z,15.01
2022-12-31T18:48:56.500Z,15.00
2022-12-31T18:51:31.494Z,15.05
2022-12-31T18:54:00.755Z,15.07
2022-12-31T18:56:28.316Z,15.01
2022-12-31T18:58:55.928Z,15.01
2022-12-31T19:01:43.320Z,15.02
2022-12-31T19:04:18.712Z,14.97
2022-12-31T19:06:49.492Z,15.00
2022-12-31T19:09:43.515Z,14.98
2022-12-31T19:12:05.102Z,15.03
2022-12-31T19:14:32.155Z,15.00
2022-12-31T19:19:26.215Z,15.04
2022-12-31T19:21:53.187Z,15.05
2022-12-31T19:24:24.512Z,15.04
2022-12-31T19:26:51.494Z,15.05
2022-12-31T19:29:27.505Z,15.07
2022-12-31T19:31:55.171Z,15.12
2022-12-31T19:34:22.282Z,15.10
2022-12-31T19:36:49.602Z,15.11
2022-12-31T19:39:20.774Z,15.12
2022-12-31T19:41:53.041Z,15.10
2022-12-31T19:44:25.304Z,15.12
2022-12-31T19:46:52.368Z,15.16
2022-12-31T19:49:19.310Z,15.13
2022-12-31T19:51:46.312Z,15.11
2022-12-31T19:54:13.897Z,15.12
2022-12-31T19:56:41.483Z,15.15
2022-12-31T19:59:10.804Z,15.12
2022-12-31T20:01:38.817Z,15.15
2022-12-31T20:04:06.045Z,15.12
2022-12-31T20:06:33.132Z,15.11
2022-12-31T20:09:00.217Z,15.11
2022-12-31T20:11:27.406Z,15.13
2022-12-31T20:13:54.512Z,15.13
2022-12-31T20:16:26.718Z,15.12
2022-12-31T20:18:54.112Z,15.12
2022-12-31T20:21:27.864Z,15.14
2022-12-31T20:23:55.613Z,15.19
2022-12-31T20:26:24.658Z,15.14
2022-12-31T20:28:52.700Z,15.15
2022-12-31T20:31:24.988Z,15.17
2022-12-31T20:33:54.284Z,15.15
2022-12-31T20:36:22.501Z,15.17
2022-12-31T20:38:50.009Z,15.13
2022-12-31T20:41:21.339Z,15.17
2022-12-31T20:43:49.139Z,15.15
2022-12-31T20:46:20.273Z,15.11
2022-12-31T20:48:49.734Z,15.12
2022-12-31T20:51:21.150Z,15.13
2022-12-31T20:53:57.531Z,15.10
2022-12-31T20:56:28.331Z,15.12
2022-12-31T20:58:55.514Z,15.12
2022-12-31T21:01:23.256Z,15.13
2022-12-31T21:04:07.017Z,15.10
2022-12-31T21:06:36.160Z,15.12
2022-12-31T21:09:06.151Z,15.15
2022-12-31T21:11:52.411Z,15.14
2022-12-31T21:14:19.779Z,15.16
2022-12-31T21:16:47.288Z,15.15
2022-12-31T21:19:14.474Z,15.13
2022-12-31T21:21:41.707Z,15.21
2022-12-31T21:24:08.980Z,15.18
2022-12-31T21:26:36.015Z,15.17
2022-12-31T21:29:03.431Z,15.19
2022-12-31T21:31:30.459Z,15.18
2022-12-31T21:33:57.657Z,15.18
2022-12-31T21:36:24.638Z,15.18
2022-12-31T21:38:51.685Z,15.17
2022-12-31T21:41:37.365Z,15.15
2022-12-31T21:44:04.492Z,15.19
2022-12-31T21:46:31.524Z,15.17
2022-12-31T21:49:00.351Z,15.18
2022-12-31T21:51:28.613Z,15.18
2022-12-31T21:53:55.774Z,15.13
2022-12-31T21:56:23.039Z,15.13
2022-12-31T21:59:17.025Z,15.18
2022-12-31T22:02:02.608Z,15.19
2022-12-31T22:05:02.023Z,15.20
2022-12-31T22:07:16.775Z,15.18
2022-12-31T22:09:43.891Z,15.18
2022-12-31T22:12:10.872Z,15.19
2022-12-31T22:14:37.807Z,15.20
2022-12-31T22:17:04.917Z,15.22
2022-12-31T22:19:33.616Z,15.19
2022-12-31T22:22:06.397Z,15.18
2022-12-31T22:24:33.379Z,15.18
2022-12-31T22:27:00.500Z,15.19
2022-12-31T22:29:47.573Z,15.20
2022-12-31T22:32:14.550Z,15.20
2022-12-31T22:34:41.499Z,15.22
2022-12-31T22:37:27.478Z,15.18
2022-12-31T22:39:55.631Z,15.17
2022-12-31T22:42:22.669Z,15.16
2022-12-31T22:44:49.824Z,15.23
2022-12-31T22:47:16.849Z,15.21
2022-12-31T22:49:43.875Z,15.20
2022-12-31T22:52:10.855Z,15.23
2022-12-31T22:54:37.811Z,15.23
2022-12-31T22:57:05.008Z,15.20
2022-12-31T22:59:31.982Z,15.23
2022-12-31T23:01:58.949Z,15.22
2022-12-31T23:04:26.038Z,15.20
2022-12-31T23:06:53.108Z,15.18
2022-12-31T23:09:38.814Z,15.19
2022-12-31T23:12:08.724Z,15.15
2022-12-31T23:14:55.158Z,15.15
2022-12-31T23:17:44.813Z,15.18
2022-12-31T23:20:35.937Z,15.16
2022-12-31T23:23:09.954Z,15.16
2022-12-31T23:25:48.914Z,15.20
2022-12-31T23:28:23.626Z,15.22
2022-12-31T23:30:51.648Z,15.20
2022-12-31T23:33:25.391Z,15.20
2022-12-31T23:36:05.902Z,15.21
2022-12-31T23:38:32.886Z,15.20
2022-12-31T23:40:59.817Z,15.17
2022-12-31T23:43:27.177Z,15.16
2022-12-31T23:45:56.994Z,15.16
2022-12-31T23:48:23.985Z,15.10
2022-12-31T23:50:53.743Z,15.10
2022-12-31T23:53:23.130Z,15.07
2022-12-31T23:55:51.661Z,15.08
2022-12-31T23:58:18.655Z,15.07
